createdAt,value
2023-08-07T00:02:24.811Z,97697.25
2023-08-07T00:07:27.920Z,97696.44
2023-08-07T00:12:32.411Z,97704.59
2023-08-07T00:17:35.753Z,97713.25
2023-08-07T00:22:38.884Z,97702.88
2023-08-07T00:27:43.280Z,97707.78
2023-08-07T00:32:46.440Z,97712.75
2023-08-07T00:37:49.749Z,97701.41
2023-08-07T00:42:54.167Z,97709.25
2023-08-07T00:47:57.372Z,97716.19
2023-08-07T00:53:01.019Z,97720.00
2023-08-07T00:58:05.544Z,97712.47
2023-08-07T01:03:08.843Z,97712.81
2023-08-07T01:08:12.586Z,97722.63
2023-08-07T01:13:26.308Z,97721.09
2023-08-07T01:18:30.394Z,97715.72
2023-08-07T01:23:34.785Z,97723.81
2023-08-07T01:28:43.524Z,97714.06
2023-08-07T01:33:57.336Z,97716.44
2023-08-07T01:39:05.177Z,97714.94
2023-08-07T01:44:08.493Z,97711.75
2023-08-07T01:49:11.561Z,97717.63
2023-08-07T01:54:16.012Z,97723.94
2023-08-07T01:59:19.059Z,97719.84
2023-08-07T02:04:22.131Z,97730.22
2023-08-07T02:09:26.611Z,97728.06
2023-08-07T02:14:29.700Z,97734.47
2023-08-07T02:19:33.144Z,97729.50
2023-08-07T02:24:37.597Z,97734.31
2023-08-07T02:29:40.862Z,97740.47
2023-08-07T02:34:44.237Z,97738.16
2023-08-07T02:39:48.693Z,97741.34
2023-08-07T02:44:51.796Z,97740.03
2023-08-07T02:49:54.923Z,97747.94
2023-08-07T02:54:59.502Z,97760.25
2023-08-07T03:00:02.649Z,97752.78
2023-08-07T03:05:06.494Z,97758.19
2023-08-07T03:10:11.627Z,97765.81
2023-08-07T03:15:14.946Z,97767.28
2023-08-07T03:20:18.138Z,97760.53
2023-08-07T03:25:23.649Z,97766.97
2023-08-07T03:30:26.858Z,97776.19
2023-08-07T03:35:32.209Z,97776.59
2023-08-07T03:40:37.147Z,97775.16
2023-08-07T03:45:41.907Z,97772.94
2023-08-07T03:50:45.011Z,97795.00
2023-08-07T03:55:53.656Z,97789.09
2023-08-07T04:00:57.723Z,97799.34
2023-08-07T04:06:01.614Z,97801.78
2023-08-07T04:11:08.251Z,97807.34
2023-08-07T04:16:11.619Z,97820.59
2023-08-07T04:21:14.774Z,97805.59
2023-08-07T04:26:19.217Z,97806.22
2023-08-07T04:31:22.301Z,97818.41
2023-08-07T04:36:25.658Z,97819.34
2023-08-07T04:41:30.272Z,97829.78
2023-08-07T04:46:34.828Z,97822.56
2023-08-07T04:51:38.239Z,97831.97
2023-08-07T04:56:45.331Z,97832.81
2023-08-07T05:01:48.394Z,97834.28
2023-08-07T05:06:51.482Z,97837.09
2023-08-07T05:11:56.056Z,97843.75
2023-08-07T05:16:59.333Z,97843.03
2023-08-07T05:22:02.445Z,97854.41
2023-08-07T05:27:09.190Z,97862.72
2023-08-07T05:32:12.798Z,97862.25
2023-08-07T05:37:15.957Z,97851.03
2023-08-07T05:42:20.390Z,97865.25
2023-08-07T05:47:23.568Z,97870.69
2023-08-07T05:52:26.897Z,97877.72
2023-08-07T05:57:31.333Z,97877.88
2023-08-07T06:02:34.493Z,97879.81
2023-08-07T06:07:37.658Z,97877.53
2023-08-07T06:12:42.079Z,97878.66
2023-08-07T06:17:45.177Z,97876.44
2023-08-07T06:22:48.349Z,97883.81
2023-08-07T06:27:52.923Z,97880.19
2023-08-07T06:32:56.033Z,97889.84
2023-08-07T06:37:59.225Z,97885.28
2023-08-07T06:43:03.661Z,97881.22
2023-08-07T06:48:06.898Z,97878.16
2023-08-07T06:53:10.085Z,97877.84
2023-08-07T06:58:14.609Z,97876.84
2023-08-07T07:03:17.771Z,97878.63
2023-08-07T07:08:21.183Z,97886.59
2023-08-07T07:13:25.719Z,97885.78
2023-08-07T07:18:29.065Z,97885.56
2023-08-07T07:23:32.164Z,97893.06
2023-08-07T07:28:37.144Z,97905.66
2023-08-07T07:33:42.486Z,97917.06
2023-08-07T07:38:47.594Z,97924.28
2023-08-07T07:43:52.128Z,97919.78
2023-08-07T07:48:55.529Z,97919.50
2023-08-07T07:54:13.631Z,97926.47
2023-08-07T07:59:19.340Z,97948.34
2023-08-07T08:04:22.516Z,97949.69
2023-08-07T08:09:25.916Z,97943.88
2023-08-07T08:14:37.345Z,97961.72
2023-08-07T08:19:51.056Z,97970.34
2023-08-07T08:24:54.479Z,97967.41
2023-08-07T08:29:58.903Z,97970.72
2023-08-07T08:35:03.138Z,97972.91
2023-08-07T08:40:09.109Z,97971.53
2023-08-07T08:45:16.258Z,97984.44
2023-08-07T08:50:19.509Z,98001.50
2023-08-07T08:55:23.136Z,98004.72
2023-08-07T09:00:28.541Z,98009.75
2023-08-07T09:05:32.184Z,98006.09
2023-08-07T09:10:36.899Z,98008.97
2023-08-07T09:15:42.108Z,98006.22
2023-08-07T09:20:45.793Z,98007.75
2023-08-07T09:25:48.974Z,98003.06
2023-08-07T09:30:55.177Z,97992.00
2023-08-07T09:36:01.023Z,98004.25
2023-08-07T09:41:05.500Z,98007.84
2023-08-07T09:46:10.506Z,98013.34
2023-08-07T09:51:13.770Z,98020.41
2023-08-07T09:56:18.461Z,98031.19
2023-08-07T10:01:23.185Z,98031.25
2023-08-07T10:06:27.093Z,98025.66
2023-08-07T10:11:31.483Z,98017.16
2023-08-07T10:16:40.338Z,98027.00
2023-08-07T10:21:44.643Z,98017.91
2023-08-07T10:26:49.573Z,98026.13
2023-08-07T10:31:56.035Z,98023.41
2023-08-07T10:36:59.413Z,98015.59
2023-08-07T10:42:05.432Z,98010.56
2023-08-07T10:47:10.125Z,98015.31
2023-08-07T10:52:16.857Z,98021.19
2023-08-07T10:57:21.130Z,98022.97
2023-08-07T11:02:31.353Z,98017.97
2023-08-07T11:07:34.573Z,98013.72
2023-08-07T11:12:37.672Z,98024.38
2023-08-07T11:17:42.706Z,98028.75
2023-08-07T11:22:46.202Z,98031.44
2023-08-07T11:27:50.442Z,98045.44
2023-08-07T11:32:55.613Z,98042.16
2023-08-07T11:37:58.718Z,98043.50
2023-08-07T11:43:01.838Z,98050.56
2023-08-07T11:48:06.979Z,98047.69
2023-08-07T11:53:10.430Z,98055.38
2023-08-07T11:58:13.690Z,98059.03
2023-08-07T12:03:31.618Z,98070.06
2023-08-07T12:08:36.046Z,98067.13
2023-08-07T12:13:41.455Z,98073.81
2023-08-07T12:18:48.947Z,98070.69
2023-08-07T12:23:53.497Z,98073.19
2023-08-07T12:28:56.617Z,98073.41
2023-08-07T12:39:09.748Z,98084.28
2023-08-07T12:44:13.649Z,98090.91
2023-08-07T12:49:20.658Z,98083.38
2023-08-07T12:54:23.841Z,98091.00
2023-08-07T12:59:26.931Z,98104.72
2023-08-07T13:04:31.385Z,98099.53
2023-08-07T13:09:34.484Z,98110.63
2023-08-07T13:14:37.660Z,98098.91
2023-08-07T13:19:42.134Z,98120.50
2023-08-07T13:24:45.437Z,98117.34
2023-08-07T13:29:49.426Z,98121.31
2023-08-07T13:34:53.889Z,98125.13
2023-08-07T13:39:56.980Z,98124.72
2023-08-07T13:45:00.886Z,98131.78
2023-08-07T13:50:08.089Z,98133.63
2023-08-07T13:55:11.278Z,98139.59
2023-08-07T14:00:15.789Z,98128.28
2023-08-07T14:05:20.239Z,98130.09
2023-08-07T14:10:23.857Z,98128.19
2023-08-07T14:15:27.155Z,98128.81
2023-08-07T14:20:31.638Z,98124.13
2023-08-07T14:25:34.754Z,98132.94
2023-08-07T14:30:37.937Z,98117.59
2023-08-07T14:35:42.522Z,98118.78
2023-08-07T14:40:45.643Z,98122.84
2023-08-07T14:45:48.768Z,98113.59
2023-08-07T14:50:53.736Z,98112.06
2023-08-07T14:55:57.818Z,98120.97
2023-08-07T15:01:00.976Z,98116.09
2023-08-07T15:06:05.973Z,98108.84
2023-08-07T15:11:09.323Z,98119.47
2023-08-07T15:16:12.518Z,98106.75
2023-08-07T15:21:17.052Z,98105.75
2023-08-07T15:26:20.264Z,98102.38
2023-08-07T15:31:23.492Z,98100.56
2023-08-07T15:36:28.097Z,98105.75
2023-08-07T15:41:31.216Z,98106.47
2023-08-07T15:46:34.489Z,98107.50
2023-08-07T15:51:39.348Z,98107.25
2023-08-07T15:56:42.597Z,98132.78
2023-08-07T16:01:45.764Z,98133.44
2023-08-07T16:06:50.276Z,98131.03
2023-08-07T16:11:53.383Z,98125.13
2023-08-07T16:16:56.809Z,98111.53
2023-08-07T16:22:02.314Z,98112.88
2023-08-07T16:27:06.534Z,98112.66
2023-08-07T16:32:10.138Z,98112.56
2023-08-07T16:37:14.674Z,98106.00
2023-08-07T16:42:17.904Z,98103.91
2023-08-07T16:47:22.158Z,98101.31
2023-08-07T16:52:27.728Z,98089.41
2023-08-07T16:57:30.811Z,98100.81
2023-08-07T17:02:34.013Z,98093.69
2023-08-07T17:07:38.553Z,98090.19
2023-08-07T17:12:43.671Z,98097.47
2023-08-07T17:17:46.925Z,98100.84
2023-08-07T17:22:51.423Z,98092.59
2023-08-07T17:27:54.583Z,98097.69
2023-08-07T17:32:57.993Z,98100.88
2023-08-07T17:38:02.541Z,98099.75
2023-08-07T17:43:06.038Z,98105.53
2023-08-07T17:48:09.619Z,98108.94
2023-08-07T17:53:14.190Z,98114.94
2023-08-07T17:58:17.263Z,98113.88
2023-08-07T18:03:20.380Z,98111.16
2023-08-07T18:08:24.826Z,98117.94
2023-08-07T18:13:28.015Z,98120.28
2023-08-07T18:18:31.078Z,98109.50
2023-08-07T18:23:35.516Z,98130.19
2023-08-07T18:28:39.450Z,98128.34
2023-08-07T18:33:42.577Z,98129.47
2023-08-07T18:38:47.078Z,98142.78
2023-08-07T18:43:50.149Z,98147.25
2023-08-07T18:48:53.231Z,98154.72
2023-08-07T18:53:58.244Z,98163.47
2023-08-07T18:59:04.379Z,98159.53
2023-08-07T19:04:07.521Z,98162.44
2023-08-07T19:09:12.288Z,98171.09
2023-08-07T19:14:15.514Z,98172.25
2023-08-07T19:19:18.646Z,98170.41
2023-08-07T19:24:23.127Z,98177.53
2023-08-07T19:29:26.342Z,98180.09
2023-08-07T19:34:29.525Z,98182.69
2023-08-07T19:39:33.975Z,98184.19
2023-08-07T19:44:37.091Z,98179.06
2023-08-07T19:49:40.155Z,98190.56
2023-08-07T19:54:46.797Z,98185.03
2023-08-07T19:59:50.031Z,98197.31
2023-08-07T20:04:53.745Z,98200.00
2023-08-07T20:09:58.550Z,98183.09
2023-08-07T20:15:01.741Z,98179.56
2023-08-07T20:20:05.857Z,98191.88
2023-08-07T20:25:11.176Z,98182.50
2023-08-07T20:30:14.641Z,98180.75
2023-08-07T20:35:17.711Z,98183.31
2023-08-07T20:40:22.286Z,98179.56
2023-08-07T20:45:25.374Z,98184.69
2023-08-07T20:50:28.539Z,98180.16
2023-08-07T20:55:32.983Z,98179.94
2023-08-07T21:00:36.083Z,98181.53
2023-08-07T21:05:39.220Z,98172.63
2023-08-07T21:10:43.799Z,98172.56
2023-08-07T21:15:47.158Z,98172.47
2023-08-07T21:20:50.278Z,98172.06
2023-08-07T21:25:54.761Z,98170.13
2023-08-07T21:30:58.059Z,98158.69
2023-08-07T21:36:01.171Z,98156.03
2023-08-07T21:41:05.603Z,98160.00
2023-08-07T21:46:08.745Z,98160.81
2023-08-07T21:51:11.885Z,98154.47
2023-08-07T21:56:16.360Z,98161.16
2023-08-07T22:01:19.427Z,98161.31
2023-08-07T22:06:22.536Z,98161.50
2023-08-07T22:11:27.008Z,98154.69
2023-08-07T22:16:30.697Z,98154.06
2023-08-07T22:21:33.825Z,98159.94
2023-08-07T22:26:38.286Z,98157.09
2023-08-07T22:31:41.393Z,98147.28
2023-08-07T22:36:44.535Z,98151.78
2023-08-07T22:41:49.029Z,98149.66
2023-08-07T22:46:52.649Z,98152.78
2023-08-07T22:51:55.805Z,98153.72
2023-08-07T22:57:00.424Z,98139.78
2023-08-07T23:02:03.628Z,98133.41
2023-08-07T23:07:06.920Z,98120.19
2023-08-07T23:12:11.964Z,98125.03
2023-08-07T23:17:18.701Z,98122.06
2023-08-07T23:22:21.822Z,98115.59
2023-08-07T23:27:26.357Z,98125.03
2023-08-07T23:32:29.606Z,98120.19
2023-08-07T23:37:32.751Z,98119.50
2023-08-07T23:42:37.304Z,98117.00
2023-08-07T23:47:40.973Z,98106.44
2023-08-07T23:52:44.163Z,98104.63
2023-08-07T23:57:48.618Z,98108.19
